Time;durP1;ratioP1;P1;durP2;ratioP2;P2;SDS_P1;SDS_P2;PMS_P1;PMS_P2;Temp;Humidity;BMP_temperature;BMP_pressure;BME280_temperature;BME280_humidity;BME280_pressure;Samples;Min_cycle;Max_cycle;Signal;HPM_P1;HPM_P2
2022/07/22 00:00:07;;;;;;;9.50;8.30;;;;;;;;;;10407433;28;20643;-78
2022/07/22 00:05:10;;;;;;;9.27;8.35;;;;;;;;;;10426335;28;20041;-80
2022/07/22 00:10:11;;;;;;;10.02;8.70;;;;;;;;;;10451895;28;20041;-81
2022/07/22 00:15:14;;;;;;;11.00;9.32;;;;;;;;;;10432966;28;20057;-78
2022/07/22 00:20:14;;;;;;;10.10;9.10;;;;;;;;;;10405609;28;20123;-78
2022/07/22 00:25:14;;;;;;;9.77;8.77;;;;;;;;;;10420004;28;20103;-76
2022/07/22 00:30:15;;;;;;;10.18;9.18;;;;;;;;;;10407047;28;20041;-78
2022/07/22 00:35:15;;;;;;;10.00;8.47;;;;;;;;;;10410870;28;20138;-79
2022/07/22 00:40:16;;;;;;;10.18;9.18;;;;;;;;;;10415053;28;20767;-78
2022/07/22 00:45:16;;;;;;;11.25;10.02;;;;;;;;;;10412996;28;20080;-79
2022/07/22 00:50:19;;;;;;;10.77;9.77;;;;;;;;;;10412456;28;20051;-78
2022/07/22 00:55:19;;;;;;;10.65;9.55;;;;;;;;;;10438560;28;20501;-78
2022/07/22 01:00:20;;;;;;;10.67;9.63;;;;;;;;;;10388368;28;20130;-79
2022/07/22 01:05:21;;;;;;;10.13;9.15;;;;;;;;;;10419772;28;20797;-78
2022/07/22 01:10:21;;;;;;;11.13;10.02;;;;;;;;;;10403519;28;20107;-80
2022/07/22 01:15:22;;;;;;;10.60;9.60;;;;;;;;;;10448898;28;20198;-80
2022/07/22 01:20:22;;;;;;;11.02;9.93;;;;;;;;;;10408921;28;20139;-79
2022/07/22 01:25:24;;;;;;;10.25;9.25;;;;;;;;;;10423330;28;20199;-78
2022/07/22 01:30:26;;;;;;;11.30;10.02;;;;;;;;;;10412818;28;20141;-79
2022/07/22 01:35:26;;;;;;;10.43;9.35;;;;;;;;;;10422262;28;20053;-79
2022/07/22 01:40:28;;;;;;;11.27;10.10;;;;;;;;;;10404414;28;20052;-79
2022/07/22 01:45:30;;;;;;;12.57;10.27;;;;;;;;;;10428304;28;20110;-81
2022/07/22 01:50:30;;;;;;;11.83;10.67;;;;;;;;;;10410021;28;20072;-77
2022/07/22 01:55:31;;;;;;;11.05;9.95;;;;;;;;;;10435340;28;20065;-79
2022/07/22 02:00:32;;;;;;;11.60;10.40;;;;;;;;;;10446514;28;20041;-78
2022/07/22 02:05:34;;;;;;;11.13;9.98;;;;;;;;;;10426512;28;20063;-79
2022/07/22 02:10:40;;;;;;;12.65;11.05;;;;;;;;;;10438396;28;20049;-81
2022/07/22 02:15:41;;;;;;;11.18;9.80;;;;;;;;;;10472353;28;20056;-79
2022/07/22 02:20:42;;;;;;;10.80;9.63;;;;;;;;;;10458907;28;20444;-78
2022/07/22 02:25:44;;;;;;;11.30;10.10;;;;;;;;;;10421781;28;20118;-78
2022/07/22 02:30:44;;;;;;;11.30;10.20;;;;;;;;;;10393017;28;20103;-79
2022/07/22 02:35:45;;;;;;;10.73;9.63;;;;;;;;;;10418971;28;20507;-78
2022/07/22 02:40:45;;;;;;;11.83;10.33;;;;;;;;;;10409231;28;20688;-79
2022/07/22 02:45:46;;;;;;;11.93;10.40;;;;;;;;;;10411407;28;20829;-78
2022/07/22 02:50:46;;;;;;;11.95;10.57;;;;;;;;;;10382052;28;20049;-77
2022/07/22 02:55:49;;;;;;;12.75;10.85;;;;;;;;;;10391822;28;20278;-78
2022/07/22 03:00:51;;;;;;;13.15;10.15;;;;;;;;;;10405336;28;20034;-78
2022/07/22 03:05:51;;;;;;;12.80;11.50;;;;;;;;;;10400106;28;20549;-78
2022/07/22 03:11:01;;;;;;;13.25;10.38;;;;;;;;;;10396705;28;20097;-79
2022/07/22 03:16:02;;;;;;;11.70;10.30;;;;;;;;;;10402833;28;20858;-77
2022/07/22 03:21:03;;;;;;;14.27;11.13;;;;;;;;;;10402896;28;20061;-78
2022/07/22 03:26:03;;;;;;;12.77;11.02;;;;;;;;;;10409852;28;20148;-78
2022/07/22 03:31:04;;;;;;;14.32;11.73;;;;;;;;;;10410694;28;20049;-79
2022/07/22 03:36:05;;;;;;;11.68;10.57;;;;;;;;;;10404886;28;20163;-77
2022/07/22 03:41:06;;;;;;;13.85;11.82;;;;;;;;;;10404093;28;20124;-79
2022/07/22 03:46:08;;;;;;;12.70;11.37;;;;;;;;;;10402221;28;20126;-78
2022/07/22 03:51:09;;;;;;;13.25;11.85;;;;;;;;;;10428702;28;20295;-78
2022/07/22 03:56:09;;;;;;;14.60;12.05;;;;;;;;;;10420078;28;20125;-81
2022/07/22 04:01:10;;;;;;;13.38;11.88;;;;;;;;;;10426904;28;20041;-79
2022/07/22 04:06:11;;;;;;;12.88;11.57;;;;;;;;;;10464816;28;20049;-80
2022/07/22 04:11:17;;;;;;;12.85;10.90;;;;;;;;;;10442392;28;20437;-81
2022/07/22 04:16:18;;;;;;;12.77;11.48;;;;;;;;;;10426823;28;20045;-79
2022/07/22 04:21:29;;;;;;;12.43;11.13;;;;;;;;;;10406990;28;20046;-80
2022/07/22 04:26:32;;;;;;;12.70;11.40;;;;;;;;;;10414189;28;20049;-80
2022/07/22 04:31:33;;;;;;;15.63;12.95;;;;;;;;;;10422569;28;20037;-80
2022/07/22 04:36:39;;;;;;;14.23;12.65;;;;;;;;;;10424373;28;20498;-78
2022/07/22 04:41:40;;;;;;;12.70;11.10;;;;;;;;;;10414616;28;20124;-76
2022/07/22 04:46:40;;;;;;;14.43;12.43;;;;;;;;;;10411728;28;20537;-73
2022/07/22 04:51:42;;;;;;;13.43;11.38;;;;;;;;;;10388483;28;20064;-75
2022/07/22 04:56:46;;;;;;;13.80;12.40;;;;;;;;;;10427038;28;20056;-73
2022/07/22 05:01:46;;;;;;;13.95;11.55;;;;;;;;;;10405164;28;20037;-77
2022/07/22 05:06:47;;;;;;;12.80;11.35;;;;;;;;;;10429934;28;20411;-74
2022/07/22 05:11:47;;;;;;;13.07;11.65;;;;;;;;;;10401230;28;20124;-73
2022/07/22 05:16:51;;;;;;;13.15;11.82;;;;;;;;;;10394276;28;20116;-75
2022/07/22 05:21:52;;;;;;;15.30;12.63;;;;;;;;;;10405431;28;20437;-74
2022/07/22 05:26:53;;;;;;;14.27;11.80;;;;;;;;;;10417520;28;20308;-72
2022/07/22 05:31:54;;;;;;;14.48;12.65;;;;;;;;;;10409538;28;20506;-74
2022/07/22 05:36:54;;;;;;;12.88;11.55;;;;;;;;;;10416260;28;20107;-74
2022/07/22 05:41:55;;;;;;;13.90;11.38;;;;;;;;;;10414325;28;20053;-74
2022/07/22 05:46:55;;;;;;;13.32;11.80;;;;;;;;;;10405137;28;20144;-74
2022/07/22 05:52:00;;;;;;;12.90;11.60;;;;;;;;;;10401226;28;20045;-75
2022/07/22 05:57:01;;;;;;;14.75;12.85;;;;;;;;;;10412328;28;20952;-74
2022/07/22 06:02:02;;;;;;;15.23;12.30;;;;;;;;;;10407652;28;20045;-73
2022/07/22 06:07:22;;;;;;;14.40;12.13;;;;;;;;;;10408259;28;20053;-75
2022/07/22 06:12:30;;;;;;;13.02;11.68;;;;;;;;;;10406102;28;20408;-74
2022/07/22 06:17:31;;;;;;;11.73;10.43;;;;;;;;;;10406809;28;20387;-73
2022/07/22 06:22:33;;;;;;;11.43;10.30;;;;;;;;;;10424719;28;20048;-75
2022/07/22 06:27:34;;;;;;;13.02;10.05;;;;;;;;;;10406614;28;20756;-73
2022/07/22 06:32:34;;;;;;;11.75;8.90;;;;;;;;;;10420026;28;20446;-75
2022/07/22 06:37:35;;;;;;;9.43;8.52;;;;;;;;;;10420884;28;20114;-73
2022/07/22 06:42:36;;;;;;;10.95;9.60;;;;;;;;;;10405237;28;20147;-73
2022/07/22 06:47:57;;;;;;;11.70;9.95;;;;;;;;;;10385088;28;20060;-80
2022/07/22 06:52:58;;;;;;;12.52;9.65;;;;;;;;;;10434871;28;20871;-80
2022/07/22 06:57:58;;;;;;;10.40;9.30;;;;;;;;;;10416521;28;20045;-80
2022/07/22 07:03:02;;;;;;;10.20;9.18;;;;;;;;;;10403635;28;20303;-80
2022/07/22 07:08:03;;;;;;;9.70;8.43;;;;;;;;;;10415824;28;20045;-80
2022/07/22 07:13:03;;;;;;;9.98;8.98;;;;;;;;;;10410718;28;20512;-78
2022/07/22 07:18:24;;;;;;;10.35;9.25;;;;;;;;;;10405005;28;20136;-79
2022/07/22 07:23:25;;;;;;;11.98;9.32;;;;;;;;;;10417852;28;20056;-79
2022/07/22 07:28:25;;;;;;;10.15;8.60;;;;;;;;;;10465934;28;20041;-80
2022/07/22 07:33:30;;;;;;;10.82;9.63;;;;;;;;;;10404270;28;20072;-81
2022/07/22 07:38:34;;;;;;;11.30;10.07;;;;;;;;;;10427283;28;20048;-80
2022/07/22 07:43:35;;;;;;;13.33;9.83;;;;;;;;;;10409153;28;20053;-81
2022/07/22 07:48:37;;;;;;;10.73;8.15;;;;;;;;;;10429457;28;20268;-81
2022/07/22 07:53:39;;;;;;;10.38;9.27;;;;;;;;;;10433304;28;20052;-79
2022/07/22 07:58:42;;;;;;;9.48;8.48;;;;;;;;;;10439662;28;20105;-82
2022/07/22 08:03:43;;;;;;;9.57;8.68;;;;;;;;;;10445465;28;20041;-80
2022/07/22 08:08:44;;;;;;;10.73;9.00;;;;;;;;;;10434115;28;20112;-80
2022/07/22 08:13:52;;;;;;;10.45;9.45;;;;;;;;;;10426587;28;20394;-81
2022/07/22 08:18:55;;;;;;;9.98;8.93;;;;;;;;;;10423661;28;20048;-79
2022/07/22 08:23:56;;;;;;;9.50;8.52;;;;;;;;;;10409246;28;20057;-79
2022/07/22 08:28:57;;;;;;;10.93;8.55;;;;;;;;;;10405260;28;20053;-79
2022/07/22 08:33:59;;;;;;;9.65;8.43;;;;;;;;;;10436730;28;20223;-80
2022/07/22 08:39:04;;;;;;;9.25;8.18;;;;;;;;;;10422717;28;20038;-79
2022/07/22 08:44:07;;;;;;;9.35;7.75;;;;;;;;;;10423303;28;20064;-80
2022/07/22 08:49:08;;;;;;;9.02;8.23;;;;;;;;;;10422668;28;20057;-81
2022/07/22 08:54:32;;;;;;;9.45;8.23;;;;;;;;;;10433625;28;20038;-80
2022/07/22 08:59:48;;;;;;;8.85;7.75;;;;;;;;;;10437628;28;20049;-81
2022/07/22 09:04:57;;;;;;;9.75;8.82;;;;;;;;;;10445882;28;20485;-79
2022/07/22 09:09:58;;;;;;;20.63;18.33;;;;;;;;;;10394706;28;20065;-73
2022/07/22 09:15:24;;;;;;;9.27;8.38;;;;;;;;;;10406700;28;20500;-72
2022/07/22 09:20:47;;;;;;;9.07;8.15;;;;;;;;;;10406762;28;20053;-74
2022/07/22 09:26:07;;;;;;;8.70;7.90;;;;;;;;;;10413158;28;20069;-72
2022/07/22 09:31:38;;;;;;;8.60;7.70;;;;;;;;;;10413001;28;20600;-72
2022/07/22 09:36:57;;;;;;;8.32;7.50;;;;;;;;;;10411662;28;20538;-73
2022/07/22 09:42:02;;;;;;;10.25;8.32;;;;;;;;;;10403931;28;20133;-74
2022/07/22 09:47:03;;;;;;;7.68;6.97;;;;;;;;;;10396917;28;20119;-73
2022/07/22 09:52:33;;;;;;;8.30;7.15;;;;;;;;;;10395442;28;20055;-73
2022/07/22 09:57:38;;;;;;;8.88;7.38;;;;;;;;;;10397491;28;20041;-74
2022/07/22 10:02:49;;;;;;;8.83;7.57;;;;;;;;;;10404742;28;20046;-73
2022/07/22 10:07:50;;;;;;;9.15;8.25;;;;;;;;;;10409923;28;20058;-72
2022/07/22 10:12:52;;;;;;;9.93;7.67;;;;;;;;;;10420765;28;20050;-73
2022/07/22 10:17:57;;;;;;;8.95;8.05;;;;;;;;;;10402557;28;20804;-72
2022/07/22 10:23:01;;;;;;;11.20;7.28;;;;;;;;;;10402776;28;20041;-72
2022/07/22 10:28:04;;;;;;;7.32;6.63;;;;;;;;;;10402416;28;20072;-73
2022/07/22 10:33:05;;;;;;;7.80;7.00;;;;;;;;;;10402527;28;20454;-72
2022/07/22 10:38:06;;;;;;;8.57;7.47;;;;;;;;;;10425932;28;20053;-73
2022/07/22 10:43:08;;;;;;;8.45;6.95;;;;;;;;;;10402972;28;20100;-71
2022/07/22 10:48:10;;;;;;;8.32;7.40;;;;;;;;;;10410507;28;20062;-72
2022/07/22 10:53:10;;;;;;;;;;;;;;;;;;10402125;28;20041;-72
2022/07/22 10:58:46;;;;;;;8.38;7.57;;;;;;;;;;10406256;28;19917;-74
2022/07/22 11:03:48;;;;;;;7.53;6.93;;;;;;;;;;10349268;28;20063;-72
2022/07/22 11:08:53;;;;;;;7.72;6.75;;;;;;;;;;10411999;28;20045;-73
2022/07/22 11:13:54;;;;;;;7.72;7.03;;;;;;;;;;10417139;28;20131;-73
2022/07/22 11:18:55;;;;;;;8.63;7.00;;;;;;;;;;10410724;28;20053;-72
2022/07/22 11:23:58;;;;;;;7.95;7.25;;;;;;;;;;10404272;28;20156;-73
2022/07/22 11:28:58;;;;;;;9.38;7.43;;;;;;;;;;10402277;28;20057;-72
2022/07/22 11:34:06;;;;;;;8.30;7.47;;;;;;;;;;10401064;28;20053;-72
2022/07/22 11:39:07;;;;;;;7.82;7.03;;;;;;;;;;10374145;28;20057;-73
2022/07/22 11:44:08;;;;;;;7.88;7.18;;;;;;;;;;10409738;28;20049;-73
2022/07/22 11:49:09;;;;;;;7.70;6.90;;;;;;;;;;10411337;28;20057;-72
2022/07/22 11:54:09;;;;;;;9.60;6.72;;;;;;;;;;10409688;28;20050;-72
2022/07/22 11:59:14;;;;;;;9.48;6.88;;;;;;;;;;10409811;28;20053;-73
2022/07/22 12:04:16;;;;;;;7.80;7.10;;;;;;;;;;10401575;28;20567;-74
2022/07/22 12:09:21;;;;;;;7.25;6.60;;;;;;;;;;10412170;28;20054;-73
2022/07/22 12:14:23;;;;;;;7.20;6.50;;;;;;;;;;10410030;28;20051;-72
2022/07/22 12:19:23;;;;;;;;;;;;;;;;;;10414111;28;20131;-72
2022/07/22 12:24:35;;;;;;;7.10;6.40;;;;;;;;;;10431907;28;20016;-71
2022/07/22 12:29:36;;;;;;;7.32;6.20;;;;;;;;;;10407174;28;21038;-73
2022/07/22 12:34:36;;;;;;;6.33;5.77;;;;;;;;;;10406630;28;20045;-72
2022/07/22 12:39:36;;;;;;;8.77;7.87;;;;;;;;;;10429811;28;20373;-72
2022/07/22 12:44:37;;;;;;;7.63;6.63;;;;;;;;;;10402281;28;20041;-72
2022/07/22 12:49:37;;;;;;;7.10;6.43;;;;;;;;;;10417597;28;20081;-80
2022/07/22 12:54:39;;;;;;;6.80;6.10;;;;;;;;;;10423355;28;20824;-79
2022/07/22 12:59:50;;;;;;;7.03;6.30;;;;;;;;;;10430886;28;20069;-79
2022/07/22 13:04:50;;;;;;;;;;;;;;;;;;10416112;28;20046;-80
2022/07/22 13:09:51;;;;;;;6.40;5.80;;;;;;;;;;10436968;28;19925;-79
2022/07/22 13:14:52;;;;;;;6.43;5.80;;;;;;;;;;10431835;28;20076;-79
2022/07/22 13:19:55;;;;;;;6.43;5.78;;;;;;;;;;10444101;28;20080;-80
2022/07/22 13:24:55;;;;;;;6.35;5.75;;;;;;;;;;10425043;28;20057;-79
2022/07/22 13:29:56;;;;;;;7.17;5.67;;;;;;;;;;10429608;28;20077;-82
2022/07/22 13:35:03;;;;;;;6.30;5.70;;;;;;;;;;10428122;28;20064;-81
2022/07/22 13:40:06;;;;;;;6.25;5.72;;;;;;;;;;10433447;28;20049;-79
2022/07/22 13:45:09;;;;;;;6.63;5.93;;;;;;;;;;10435987;28;20046;-81
2022/07/22 13:50:13;;;;;;;6.43;5.70;;;;;;;;;;10456876;28;20065;-80
2022/07/22 13:55:14;;;;;;;6.28;5.68;;;;;;;;;;10452354;28;20040;-79
2022/07/22 14:00:14;;;;;;;6.50;5.90;;;;;;;;;;10459997;28;20064;-79
2022/07/22 14:05:16;;;;;;;6.30;5.80;;;;;;;;;;10441938;28;20277;-80
2022/07/22 14:10:16;;;;;;;;;;;;;;;;;;10431693;28;20064;-79
2022/07/22 14:15:17;;;;;;;6.33;5.77;;;;;;;;;;10433370;28;19948;-83
2022/07/22 14:20:18;;;;;;;;;;;;;;;;;;10425224;28;20051;-80
2022/07/22 14:25:20;;;;;;;6.15;5.47;;;;;;;;;;10438941;28;19936;-80
2022/07/22 14:30:20;;;;;;;5.85;5.25;;;;;;;;;;10425453;28;20046;-80
2022/07/22 14:35:21;;;;;;;6.03;5.53;;;;;;;;;;10421295;28;20033;-81
2022/07/22 14:40:23;;;;;;;8.18;6.35;;;;;;;;;;10427379;28;20130;-81
2022/07/22 14:45:23;;;;;;;5.70;5.20;;;;;;;;;;10432761;28;20053;-80
2022/07/22 14:50:23;;;;;;;6.13;5.55;;;;;;;;;;10428785;28;20450;-80
2022/07/22 14:55:24;;;;;;;6.70;5.87;;;;;;;;;;10421398;28;20128;-81
2022/07/22 15:00:24;;;;;;;5.93;5.40;;;;;;;;;;10424085;28;20068;-80
2022/07/22 15:05:25;;;;;;;6.27;5.73;;;;;;;;;;10436797;28;20076;-79
2022/07/22 15:10:28;;;;;;;7.45;6.80;;;;;;;;;;10417935;28;20072;-78
2022/07/22 15:15:28;;;;;;;6.55;5.82;;;;;;;;;;10435910;28;20053;-79
2022/07/22 15:20:29;;;;;;;6.10;5.50;;;;;;;;;;10427271;28;20041;-79
2022/07/22 15:25:29;;;;;;;6.20;5.65;;;;;;;;;;10416187;28;20037;-79
2022/07/22 15:30:30;;;;;;;10.93;6.83;;;;;;;;;;10413354;28;20137;-80
2022/07/22 15:35:30;;;;;;;6.53;5.93;;;;;;;;;;10413823;28;20042;-80
2022/07/22 15:40:32;;;;;;;6.67;5.63;;;;;;;;;;10411758;28;20892;-79
2022/07/22 15:45:34;;;;;;;8.38;5.68;;;;;;;;;;10420085;28;20120;-81
2022/07/22 15:50:36;;;;;;;6.22;5.63;;;;;;;;;;10428841;28;20227;-79
2022/07/22 15:55:36;;;;;;;6.35;5.75;;;;;;;;;;10429332;28;20056;-80
2022/07/22 16:00:37;;;;;;;5.70;5.20;;;;;;;;;;10446173;28;20049;-80
2022/07/22 16:05:37;;;;;;;6.75;6.15;;;;;;;;;;10442114;28;20045;-80
2022/07/22 16:10:39;;;;;;;6.13;5.57;;;;;;;;;;10425855;28;20049;-81
2022/07/22 16:15:39;;;;;;;5.72;5.22;;;;;;;;;;10417914;28;20319;-80
2022/07/22 16:20:40;;;;;;;6.70;6.00;;;;;;;;;;10430422;28;20041;-84
2022/07/22 16:25:40;;;;;;;;;;;;;;;;;;10426088;28;20041;-79
2022/07/22 16:30:41;;;;;;;6.18;5.63;;;;;;;;;;10426511;28;20272;-80
2022/07/22 16:35:41;;;;;;;;;;;;;;;;;;10445101;28;20045;-82
2022/07/22 16:40:42;;;;;;;6.77;6.17;;;;;;;;;;10439920;28;19920;-88
2022/07/22 16:45:44;;;;;;;10.80;6.30;;;;;;;;;;10449843;28;20045;-87
2022/07/22 16:50:48;;;;;;;6.28;5.47;;;;;;;;;;10458040;28;20120;-84
2022/07/22 16:55:58;;;;;;;7.45;6.22;;;;;;;;;;10448769;28;20041;-87
2022/07/22 17:01:06;;;;;;;6.53;5.75;;;;;;;;;;10447613;28;20041;-83
2022/07/22 17:06:10;;;;;;;6.05;5.28;;;;;;;;;;10472621;28;20057;-82
2022/07/22 17:11:12;;;;;;;5.80;5.23;;;;;;;;;;10453565;28;20068;-82
2022/07/22 17:16:33;;;;;;;5.53;5.10;;;;;;;;;;10474283;28;20045;-86
2022/07/22 17:21:33;;;;;;;7.63;6.80;;;;;;;;;;10441074;28;20048;-80
2022/07/22 17:26:38;;;;;;;6.40;5.80;;;;;;;;;;10438408;28;20374;-84
2022/07/22 17:31:43;;;;;;;6.88;6.28;;;;;;;;;;10409845;28;20127;-84
2022/07/22 17:36:44;;;;;;;7.82;6.78;;;;;;;;;;10431201;28;20084;-84
2022/07/22 17:41:45;;;;;;;6.30;5.70;;;;;;;;;;10427563;28;20051;-82
2022/07/22 17:46:45;;;;;;;6.40;5.80;;;;;;;;;;10438661;28;20048;-85
2022/07/22 17:51:47;;;;;;;6.95;6.25;;;;;;;;;;10435040;28;20034;-83
2022/07/22 17:56:49;;;;;;;6.73;6.03;;;;;;;;;;10430460;28;20061;-83
2022/07/22 18:01:50;;;;;;;7.03;6.43;;;;;;;;;;10439427;28;20045;-83
2022/07/22 18:06:52;;;;;;;6.85;6.03;;;;;;;;;;10438110;28;20080;-80
2022/07/22 18:11:56;;;;;;;6.15;5.63;;;;;;;;;;10428942;28;20057;-81
2022/07/22 18:16:57;;;;;;;6.57;5.97;;;;;;;;;;10432107;28;20049;-80
2022/07/22 18:21:59;;;;;;;6.77;5.93;;;;;;;;;;10420887;28;20156;-81
2022/07/22 18:26:59;;;;;;;6.88;6.28;;;;;;;;;;10417904;28;20564;-80
2022/07/22 18:32:01;;;;;;;7.00;6.30;;;;;;;;;;10418081;28;20136;-79
2022/07/22 18:37:01;;;;;;;;;;;;;;;;;;10417431;28;20141;-82
2022/07/22 18:42:01;;;;;;;7.03;6.40;;;;;;;;;;10426501;28;19995;-80
2022/07/22 18:47:03;;;;;;;6.83;6.23;;;;;;;;;;10399111;28;20045;-80
2022/07/22 18:52:03;;;;;;;;;;;;;;;;;;10432515;28;20076;-79
2022/07/22 18:57:04;;;;;;;9.63;5.80;;;;;;;;;;10419257;28;19947;-81
2022/07/22 19:02:04;;;;;;;7.77;6.47;;;;;;;;;;10412067;28;20061;-80
2022/07/22 19:07:05;;;;;;;6.00;5.43;;;;;;;;;;10432576;28;20103;-76
2022/07/22 19:12:05;;;;;;;7.00;6.13;;;;;;;;;;10429350;23;20131;-78
2022/07/22 19:17:06;;;;;;;7.53;6.23;;;;;;;;;;10395768;28;20140;-79
2022/07/22 19:22:06;;;;;;;6.57;6.00;;;;;;;;;;10408875;28;20052;-82
2022/07/22 19:27:08;;;;;;;6.10;5.43;;;;;;;;;;10432037;28;20045;-81
2022/07/22 19:32:08;;;;;;;6.25;5.75;;;;;;;;;;10402476;28;20052;-81
2022/07/22 19:37:09;;;;;;;7.17;5.97;;;;;;;;;;10391041;28;20084;-80
2022/07/22 19:42:10;;;;;;;6.93;6.32;;;;;;;;;;10395726;28;20393;-72
2022/07/22 19:47:12;;;;;;;7.13;6.43;;;;;;;;;;10402554;28;20109;-81
2022/07/22 19:52:12;;;;;;;7.25;6.53;;;;;;;;;;10421865;28;20445;-81
2022/07/22 19:57:12;;;;;;;10.60;7.00;;;;;;;;;;10415957;28;20064;-85
2022/07/22 20:02:13;;;;;;;8.17;6.50;;;;;;;;;;10404609;28;20045;-86
2022/07/22 20:07:13;;;;;;;7.60;6.87;;;;;;;;;;10398318;28;20110;-81
2022/07/22 20:12:14;;;;;;;8.70;7.33;;;;;;;;;;10382364;28;20050;-76
2022/07/22 20:17:14;;;;;;;8.30;6.80;;;;;;;;;;10388643;28;20058;-76
2022/07/22 20:22:15;;;;;;;9.03;7.37;;;;;;;;;;10382451;28;20069;-76
2022/07/22 20:27:16;;;;;;;8.57;6.53;;;;;;;;;;10379250;28;20042;-74
2022/07/22 20:32:17;;;;;;;8.45;7.15;;;;;;;;;;10384172;28;20050;-77
2022/07/22 20:37:17;;;;;;;7.83;7.13;;;;;;;;;;10384532;28;20045;-75
2022/07/22 20:42:19;;;;;;;7.63;6.77;;;;;;;;;;10388396;28;20117;-75
2022/07/22 20:47:20;;;;;;;7.95;7.15;;;;;;;;;;10386276;28;20112;-76
2022/07/22 20:52:20;;;;;;;7.43;6.80;;;;;;;;;;10389648;28;20057;-74
2022/07/22 20:57:20;;;;;;;8.97;7.37;;;;;;;;;;10387427;28;20153;-74
2022/07/22 21:02:21;;;;;;;8.00;6.87;;;;;;;;;;10389895;28;20061;-76
2022/07/22 21:07:22;;;;;;;8.00;7.20;;;;;;;;;;10378688;28;20049;-74
2022/07/22 21:12:23;;;;;;;7.90;7.10;;;;;;;;;;10365156;28;20421;-76
2022/07/22 21:17:23;;;;;;;8.33;7.40;;;;;;;;;;10381575;28;20144;-75
2022/07/22 21:22:23;;;;;;;8.53;7.73;;;;;;;;;;10387880;28;20564;-74
2022/07/22 21:27:24;;;;;;;11.13;7.57;;;;;;;;;;10384959;28;20037;-74
2022/07/22 21:32:24;;;;;;;7.90;7.13;;;;;;;;;;10376884;28;20050;-75
2022/07/22 21:37:25;;;;;;;8.37;7.47;;;;;;;;;;10380899;28;20057;-75
2022/07/22 21:42:25;;;;;;;8.55;7.65;;;;;;;;;;10382568;28;20045;-75
2022/07/22 21:47:25;;;;;;;8.23;7.22;;;;;;;;;;10379630;28;20068;-73
2022/07/22 21:52:26;;;;;;;8.50;7.57;;;;;;;;;;10384996;28;20049;-75
2022/07/22 21:57:26;;;;;;;8.18;7.35;;;;;;;;;;10375965;28;20050;-74
2022/07/22 22:02:27;;;;;;;9.40;7.83;;;;;;;;;;10380055;28;20554;-75
2022/07/22 22:07:27;;;;;;;7.90;7.10;;;;;;;;;;10377545;28;20137;-74
2022/07/22 22:12:27;;;;;;;8.07;7.23;;;;;;;;;;10386654;28;20092;-75
2022/07/22 22:17:28;;;;;;;11.23;7.97;;;;;;;;;;10381580;28;20575;-76
2022/07/22 22:22:29;;;;;;;7.85;7.03;;;;;;;;;;10380396;28;20053;-75
2022/07/22 22:27:29;;;;;;;11.30;7.70;;;;;;;;;;10379943;28;20048;-75
2022/07/22 22:32:30;;;;;;;8.50;7.70;;;;;;;;;;10375678;28;20050;-76
2022/07/22 22:37:30;;;;;;;9.17;8.27;;;;;;;;;;10384144;28;20057;-75
2022/07/22 22:42:31;;;;;;;9.00;7.40;;;;;;;;;;10380221;28;21121;-76
2022/07/22 22:47:31;;;;;;;8.57;7.27;;;;;;;;;;10380279;28;20304;-75
2022/07/22 22:52:31;;;;;;;8.30;7.50;;;;;;;;;;10378673;28;20276;-76
2022/07/22 22:57:32;;;;;;;8.90;7.70;;;;;;;;;;10376445;28;20813;-75
2022/07/22 23:02:32;;;;;;;8.27;7.47;;;;;;;;;;10376984;28;20107;-75
2022/07/22 23:07:33;;;;;;;9.33;7.93;;;;;;;;;;10373211;28;20038;-75
2022/07/22 23:12:33;;;;;;;10.63;8.23;;;;;;;;;;10374431;28;20052;-74
2022/07/22 23:17:34;;;;;;;11.20;9.27;;;;;;;;;;10377934;28;20412;-75
2022/07/22 23:22:35;;;;;;;11.53;8.83;;;;;;;;;;10378584;28;20280;-76
2022/07/22 23:27:36;;;;;;;9.30;8.35;;;;;;;;;;10369878;28;21023;-75
2022/07/22 23:32:36;;;;;;;12.05;9.15;;;;;;;;;;10380759;28;20041;-75
2022/07/22 23:37:37;;;;;;;8.63;7.73;;;;;;;;;;10375630;28;20745;-76
2022/07/22 23:42:37;;;;;;;11.87;8.57;;;;;;;;;;10386820;28;20284;-76
2022/07/22 23:47:37;;;;;;;9.43;8.40;;;;;;;;;;10376641;28;20280;-74
2022/07/22 23:52:38;;;;;;;9.63;8.23;;;;;;;;;;10376202;28;20041;-74
2022/07/22 23:57:38;;;;;;;10.13;8.97;;;;;;;;;;10377660;28;20285;-74
